sensor_id;sensor_type;location;lat;lon;timestamp;P1;durP1;ratioP1;P2;durP2;ratioP2
21517;SDS011;61765;45.794;24.150;2023-07-08T00:00:17;4.40;;;3.72;;
21517;SDS011;61765;45.794;24.150;2023-07-08T00:08:28;4.95;;;2.75;;
21517;SDS011;61765;45.794;24.150;2023-07-08T00:16:33;4.38;;;3.20;;
21517;SDS011;61765;45.794;24.150;2023-07-08T00:24:42;3.40;;;3.10;;
21517;SDS011;61765;45.794;24.150;2023-07-08T00:32:47;6.25;;;3.60;;
21517;SDS011;61765;45.794;24.150;2023-07-08T00:41:06;4.63;;;3.08;;
21517;SDS011;61765;45.794;24.150;2023-07-08T00:49:18;8.50;;;3.78;;
21517;SDS011;61765;45.794;24.150;2023-07-08T00:57:34;7.50;;;3.47;;
21517;SDS011;61765;45.794;24.150;2023-07-08T01:05:42;7.47;;;3.58;;
21517;SDS011;61765;45.794;24.150;2023-07-08T01:13:51;3.58;;;3.10;;
21517;SDS011;61765;45.794;24.150;2023-07-08T01:22:03;4.97;;;3.63;;
21517;SDS011;61765;45.794;24.150;2023-07-08T01:30:09;4.77;;;3.80;;
21517;SDS011;61765;45.794;24.150;2023-07-08T01:38:21;3.92;;;3.30;;
21517;SDS011;61765;45.794;24.150;2023-07-08T01:46:30;4.53;;;3.83;;
21517;SDS011;61765;45.794;24.150;2023-07-08T01:54:39;6.47;;;3.63;;
21517;SDS011;61765;45.794;24.150;2023-07-08T02:02:44;3.63;;;3.22;;
21517;SDS011;61765;45.794;24.150;2023-07-08T02:10:55;6.15;;;3.80;;
21517;SDS011;61765;45.794;24.150;2023-07-08T02:19:04;5.25;;;4.07;;
21517;SDS011;61765;45.794;24.150;2023-07-08T02:27:12;5.57;;;4.05;;
21517;SDS011;61765;45.794;24.150;2023-07-08T02:35:18;5.03;;;3.80;;
21517;SDS011;61765;45.794;24.150;2023-07-08T02:43:26;5.93;;;4.65;;
21517;SDS011;61765;45.794;24.150;2023-07-08T02:51:33;5.20;;;3.75;;
21517;SDS011;61765;45.794;24.150;2023-07-08T02:59:41;6.40;;;3.88;;
21517;SDS011;61765;45.794;24.150;2023-07-08T03:07:47;7.38;;;4.25;;
21517;SDS011;61765;45.794;24.150;2023-07-08T03:15:55;4.75;;;4.15;;
21517;SDS011;61765;45.794;24.150;2023-07-08T03:24:05;7.55;;;3.83;;
21517;SDS011;61765;45.794;24.150;2023-07-08T03:32:18;5.07;;;3.67;;
21517;SDS011;61765;45.794;24.150;2023-07-08T03:40:24;6.43;;;4.20;;
21517;SDS011;61765;45.794;24.150;2023-07-08T03:56:41;6.20;;;4.57;;
21517;SDS011;61765;45.794;24.150;2023-07-08T04:04:50;6.55;;;4.60;;
21517;SDS011;61765;45.794;24.150;2023-07-08T04:12:57;8.15;;;4.53;;
21517;SDS011;61765;45.794;24.150;2023-07-08T04:21:05;7.65;;;4.63;;
21517;SDS011;61765;45.794;24.150;2023-07-08T04:29:15;6.47;;;4.20;;
21517;SDS011;61765;45.794;24.150;2023-07-08T04:37:24;5.43;;;4.45;;
21517;SDS011;61765;45.794;24.150;2023-07-08T04:45:30;7.78;;;4.78;;
21517;SDS011;61765;45.794;24.150;2023-07-08T04:53:38;6.35;;;4.60;;
21517;SDS011;61765;45.794;24.150;2023-07-08T05:01:43;5.55;;;4.25;;
21517;SDS011;61765;45.794;24.150;2023-07-08T05:09:53;5.22;;;4.50;;
21517;SDS011;61765;45.794;24.150;2023-07-08T05:17:59;5.95;;;4.80;;
21517;SDS011;61765;45.794;24.150;2023-07-08T05:26:07;5.30;;;4.65;;
21517;SDS011;61765;45.794;24.150;2023-07-08T05:34:13;8.57;;;5.13;;
21517;SDS011;61765;45.794;24.150;2023-07-08T05:42:22;6.80;;;4.10;;
21517;SDS011;61765;45.794;24.150;2023-07-08T05:50:29;6.53;;;4.22;;
21517;SDS011;61765;45.794;24.150;2023-07-08T05:58:37;5.72;;;4.40;;
21517;SDS011;61765;45.794;24.150;2023-07-08T06:06:42;5.28;;;4.70;;
21517;SDS011;61765;45.794;24.150;2023-07-08T06:14:50;5.40;;;4.18;;
21517;SDS011;61765;45.794;24.150;2023-07-08T06:22:56;7.15;;;4.15;;
21517;SDS011;61765;45.794;24.150;2023-07-08T06:31:04;4.95;;;4.40;;
21517;SDS011;61765;45.794;24.150;2023-07-08T06:39:14;8.00;;;4.90;;
21517;SDS011;61765;45.794;24.150;2023-07-08T06:47:29;6.30;;;4.90;;
21517;SDS011;61765;45.794;24.150;2023-07-08T06:55:34;7.35;;;5.20;;
21517;SDS011;61765;45.794;24.150;2023-07-08T07:03:43;6.40;;;5.22;;
21517;SDS011;61765;45.794;24.150;2023-07-08T07:11:49;7.72;;;6.40;;
21517;SDS011;61765;45.794;24.150;2023-07-08T07:19:58;6.13;;;5.50;;
21517;SDS011;61765;45.794;24.150;2023-07-08T07:28:04;8.73;;;5.53;;
21517;SDS011;61765;45.794;24.150;2023-07-08T07:36:24;6.05;;;5.22;;
21517;SDS011;61765;45.794;24.150;2023-07-08T07:44:37;5.40;;;4.68;;
21517;SDS011;61765;45.794;24.150;2023-07-08T08:01:21;6.20;;;4.35;;
21517;SDS011;61765;45.794;24.150;2023-07-08T08:09:29;6.00;;;4.10;;
21517;SDS011;61765;45.794;24.150;2023-07-08T08:17:35;5.60;;;4.40;;
21517;SDS011;61765;45.794;24.150;2023-07-08T08:25:43;7.80;;;4.57;;
21517;SDS011;61765;45.794;24.150;2023-07-08T08:33:50;4.60;;;3.80;;
21517;SDS011;61765;45.794;24.150;2023-07-08T08:42:02;6.60;;;4.10;;
21517;SDS011;61765;45.794;24.150;2023-07-08T08:58:46;4.80;;;3.83;;
21517;SDS011;61765;45.794;24.150;2023-07-08T09:07:00;5.75;;;4.13;;
21517;SDS011;61765;45.794;24.150;2023-07-08T09:15:18;6.38;;;4.00;;
21517;SDS011;61765;45.794;24.150;2023-07-08T09:23:25;4.32;;;3.75;;
21517;SDS011;61765;45.794;24.150;2023-07-08T09:31:38;6.20;;;3.60;;
21517;SDS011;61765;45.794;24.150;2023-07-08T09:39:45;5.40;;;3.80;;
21517;SDS011;61765;45.794;24.150;2023-07-08T09:47:54;8.00;;;3.92;;
21517;SDS011;61765;45.794;24.150;2023-07-08T09:56:05;6.28;;;3.83;;
21517;SDS011;61765;45.794;24.150;2023-07-08T10:04:27;5.55;;;3.55;;
21517;SDS011;61765;45.794;24.150;2023-07-08T10:12:33;4.90;;;4.03;;
21517;SDS011;61765;45.794;24.150;2023-07-08T10:20:46;6.53;;;4.55;;
21517;SDS011;61765;45.794;24.150;2023-07-08T10:29:18;7.40;;;5.53;;
21517;SDS011;61765;45.794;24.150;2023-07-08T10:37:41;6.45;;;4.65;;
21517;SDS011;61765;45.794;24.150;2023-07-08T10:46:00;5.10;;;4.20;;
21517;SDS011;61765;45.794;24.150;2023-07-08T10:54:31;6.28;;;3.80;;
21517;SDS011;61765;45.794;24.150;2023-07-08T11:02:56;3.90;;;3.03;;
21517;SDS011;61765;45.794;24.150;2023-07-08T11:11:27;4.00;;;3.10;;
21517;SDS011;61765;45.794;24.150;2023-07-08T11:19:40;4.70;;;3.53;;
21517;SDS011;61765;45.794;24.150;2023-07-08T12:54:18;7.13;;;3.33;;
